createdAt,value
2022-08-03T00:00:46.768Z,100796.58
2022-08-03T00:03:18.026Z,100793.87
2022-08-03T00:06:03.891Z,100795.17
2022-08-03T00:08:25.504Z,100799.69
2022-08-03T00:10:56.777Z,100795.38
2022-08-03T00:13:28.370Z,100797.07
2022-08-03T00:15:59.896Z,100802.38
2022-08-03T00:18:32.680Z,100800.42
2022-08-03T00:21:04.546Z,100801.18
2022-08-03T00:23:51.397Z,100800.38
2022-08-03T00:26:10.692Z,100798.34
2022-08-03T00:28:42.479Z,100808.52
2022-08-03T00:31:14.373Z,100793.36
2022-08-03T00:33:58.016Z,100802.55
2022-08-03T00:36:18.323Z,100796.49
2022-08-03T00:38:49.747Z,100802.45
2022-08-03T00:41:23.670Z,100796.89
2022-08-03T00:43:56.760Z,100794.29
2022-08-03T00:46:28.140Z,100797.13
2022-08-03T00:48:59.544Z,100795.17
2022-08-03T00:51:30.929Z,100788.69
2022-08-03T00:54:02.206Z,100789.44
2022-08-03T00:56:33.833Z,100789.77
2022-08-03T00:59:05.858Z,100794.42
2022-08-03T01:01:37.583Z,100794.72
2022-08-03T01:04:11.368Z,100788.75
2022-08-03T01:07:02.385Z,100788.55
2022-08-03T01:09:53.303Z,100792.97
2022-08-03T01:12:42.335Z,100790.59
2022-08-03T01:15:16.363Z,100786.05
2022-08-03T01:18:06.912Z,100792.77
2022-08-03T01:20:40.519Z,100793.86
2022-08-03T01:23:37.840Z,100786.25
2022-08-03T01:26:28.306Z,100789.05
2022-08-03T01:29:02.252Z,100789.05
2022-08-03T01:33:00.185Z,100786.91
2022-08-03T01:34:17.653Z,100785.29
2022-08-03T01:36:54.345Z,100783.05
2022-08-03T01:39:30.941Z,100786.61
2022-08-03T01:42:07.995Z,100780.74
2022-08-03T01:44:42.044Z,100787.23
2022-08-03T01:47:17.116Z,100782.26
2022-08-03T01:49:50.154Z,100781.30
2022-08-03T01:52:23.163Z,100779.46
2022-08-03T01:54:57.329Z,100772.24
2022-08-03T01:57:30.703Z,100770.59
2022-08-03T02:00:04.047Z,100772.34
2022-08-03T02:02:37.874Z,100771.16
2022-08-03T02:05:11.587Z,100776.75
2022-08-03T02:07:43.847Z,100771.35
2022-08-03T02:10:17.008Z,100774.84
2022-08-03T02:12:51.361Z,100774.61
2022-08-03T02:15:23.649Z,100777.41
2022-08-03T02:17:56.384Z,100772.24
2022-08-03T02:20:28.929Z,100775.80
2022-08-03T02:23:00.680Z,100770.86
2022-08-03T02:25:33.733Z,100769.73
2022-08-03T02:28:10.686Z,100773.63
2022-08-03T02:30:44.527Z,100771.58
2022-08-03T02:33:24.008Z,100774.88
2022-08-03T02:35:55.772Z,100769.73
2022-08-03T02:38:29.712Z,100773.95
2022-08-03T02:41:02.746Z,100771.61
2022-08-03T02:43:39.188Z,100771.41
2022-08-03T02:46:11.121Z,100771.71
2022-08-03T02:48:44.991Z,100769.77
2022-08-03T02:51:17.663Z,100767.95
2022-08-03T02:53:51.008Z,100771.18
2022-08-03T02:56:23.930Z,100775.63
2022-08-03T02:58:56.116Z,100764.16
2022-08-03T03:01:29.767Z,100763.07
2022-08-03T03:04:02.722Z,100763.07
2022-08-03T03:06:34.105Z,100767.42
2022-08-03T03:09:06.928Z,100767.22
2022-08-03T03:11:40.498Z,100764.28
2022-08-03T03:14:14.843Z,100764.46
2022-08-03T03:16:51.940Z,100761.71
2022-08-03T03:19:23.255Z,100766.78
2022-08-03T03:21:55.648Z,100764.52
2022-08-03T03:24:28.009Z,100763.76
2022-08-03T03:26:59.600Z,100766.51
2022-08-03T03:29:30.922Z,100762.67
2022-08-03T03:32:04.616Z,100760.22
2022-08-03T03:34:37.925Z,100763.23
2022-08-03T03:37:10.879Z,100763.22
2022-08-03T03:39:42.518Z,100767.89
2022-08-03T03:42:14.470Z,100766.01
2022-08-03T03:44:46.421Z,100770.92
2022-08-03T03:47:17.897Z,100768.17
2022-08-03T03:49:51.505Z,100770.80
2022-08-03T03:52:23.817Z,100773.84
2022-08-03T03:55:00.806Z,100777.95
2022-08-03T03:57:29.815Z,100781.00
2022-08-03T04:00:01.269Z,100783.05
2022-08-03T04:02:32.766Z,100781.65
2022-08-03T04:05:22.790Z,100781.09
2022-08-03T04:08:21.377Z,100784.56
2022-08-03T04:11:12.051Z,100780.79
2022-08-03T04:14:19.851Z,100787.86
2022-08-03T04:17:05.883Z,100785.59
2022-08-03T04:19:46.010Z,100785.59
2022-08-03T04:22:20.004Z,100792.83
2022-08-03T04:25:10.935Z,100799.02
2022-08-03T04:27:43.911Z,100801.81
2022-08-03T04:30:15.964Z,100795.33
2022-08-03T04:32:50.277Z,100807.55
2022-08-03T04:35:22.016Z,100811.01
2022-08-03T04:37:57.066Z,100814.80
2022-08-03T04:40:31.399Z,100811.20
2022-08-03T04:43:04.871Z,100813.69
2022-08-03T04:45:37.229Z,100818.53
2022-08-03T04:48:08.730Z,100816.98
2022-08-03T04:50:40.154Z,100816.73
2022-08-03T04:53:11.718Z,100813.63
2022-08-03T04:55:44.195Z,100804.30
2022-08-03T04:58:15.589Z,100811.69
2022-08-03T05:00:48.362Z,100813.58
2022-08-03T05:03:25.030Z,100806.13
2022-08-03T05:06:09.885Z,100810.32
2022-08-03T05:08:30.412Z,100813.73
2022-08-03T05:11:03.699Z,100811.88
2022-08-03T05:13:35.056Z,100799.52
2022-08-03T05:16:06.782Z,100810.14
2022-08-03T05:18:38.296Z,100805.84
2022-08-03T05:21:10.468Z,100804.25
2022-08-03T05:23:42.938Z,100809.91
2022-08-03T05:26:14.040Z,100806.77
2022-08-03T05:28:49.937Z,100814.89
2022-08-03T05:31:18.055Z,100811.69
2022-08-03T05:33:49.730Z,100811.03
2022-08-03T05:36:21.230Z,100812.00
2022-08-03T05:38:52.657Z,100818.91
2022-08-03T05:41:37.181Z,100807.77
2022-08-03T05:43:58.466Z,100813.98
2022-08-03T05:46:30.304Z,100816.11
2022-08-03T05:49:01.820Z,100810.81
2022-08-03T05:51:33.032Z,100817.36
2022-08-03T05:54:06.095Z,100815.02
2022-08-03T05:56:37.587Z,100811.45
2022-08-03T05:59:35.717Z,100816.64
2022-08-03T06:01:42.373Z,100819.37
2022-08-03T06:04:13.821Z,100821.09
2022-08-03T06:06:45.912Z,100816.66
2022-08-03T06:09:17.275Z,100810.23
2022-08-03T06:11:48.837Z,100817.13
2022-08-03T06:14:20.462Z,100818.11
2022-08-03T06:16:51.681Z,100832.19
2022-08-03T06:19:25.036Z,100830.32
2022-08-03T06:21:56.075Z,100827.23
2022-08-03T06:24:27.315Z,100822.16
2022-08-03T06:27:00.290Z,100826.14
2022-08-03T06:29:31.470Z,100823.91
2022-08-03T06:32:02.661Z,100827.30
2022-08-03T06:34:35.825Z,100814.97
2022-08-03T06:37:06.866Z,100829.55
2022-08-03T06:39:38.264Z,100819.42
2022-08-03T06:42:10.891Z,100814.71
2022-08-03T06:44:42.256Z,100812.34
2022-08-03T06:47:13.513Z,100812.84
2022-08-03T06:49:47.262Z,100811.17
2022-08-03T06:52:44.880Z,100810.42
2022-08-03T06:54:52.626Z,100815.96
2022-08-03T06:57:23.870Z,100814.21
2022-08-03T07:00:09.846Z,100807.52
2022-08-03T07:02:30.788Z,100819.72
2022-08-03T07:05:03.230Z,100809.69
2022-08-03T07:07:34.526Z,100815.07
2022-08-03T07:10:06.946Z,100810.34
2022-08-03T07:12:39.045Z,100808.47
2022-08-03T07:15:20.411Z,100812.05
2022-08-03T07:17:46.244Z,100807.90
2022-08-03T07:20:18.679Z,100810.72
2022-08-03T07:22:50.126Z,100811.61
2022-08-03T07:25:21.407Z,100810.47
2022-08-03T07:27:52.951Z,100810.84
2022-08-03T07:30:24.546Z,100812.63
2022-08-03T07:32:56.161Z,100816.16
2022-08-03T07:35:27.665Z,100805.08
2022-08-03T07:37:59.015Z,100806.52
2022-08-03T07:40:32.227Z,100796.84
2022-08-03T07:43:04.276Z,100801.05
2022-08-03T07:45:35.852Z,100796.87
2022-08-03T07:48:12.219Z,100797.84
2022-08-03T07:50:41.373Z,100802.25
2022-08-03T07:53:12.958Z,100793.56
2022-08-03T07:55:44.525Z,100790.25
2022-08-03T07:58:24.326Z,100803.78
2022-08-03T08:00:56.008Z,100799.26
2022-08-03T08:03:27.588Z,100795.41
2022-08-03T08:06:00.710Z,100789.20
2022-08-03T08:08:32.851Z,100788.41
2022-08-03T08:11:04.486Z,100780.16
2022-08-03T08:13:37.902Z,100792.89
2022-08-03T08:16:11.206Z,100791.11
2022-08-03T08:18:42.718Z,100785.75
2022-08-03T08:21:14.135Z,100794.29
2022-08-03T08:23:54.943Z,100786.97
2022-08-03T08:26:19.150Z,100783.61
2022-08-03T08:28:51.141Z,100784.02
2022-08-03T08:31:22.885Z,100779.06
2022-08-03T08:34:04.148Z,100788.38
2022-08-03T08:36:27.893Z,100780.30
2022-08-03T08:38:59.317Z,100777.96
2022-08-03T08:41:32.484Z,100779.24
2022-08-03T08:44:05.657Z,100771.50
2022-08-03T08:46:38.412Z,100777.86
2022-08-03T08:49:11.679Z,100780.38
2022-08-03T08:51:59.375Z,100775.96
2022-08-03T08:57:00.873Z,100784.52
2022-08-03T08:59:48.726Z,100784.88
2022-08-03T09:02:10.819Z,100787.63
2022-08-03T09:04:42.849Z,100787.70
2022-08-03T09:07:21.164Z,100785.98
2022-08-03T09:10:07.599Z,100785.48
2022-08-03T09:12:40.935Z,100782.73
2022-08-03T09:15:14.795Z,100781.16
2022-08-03T09:17:27.146Z,100780.50
2022-08-03T09:20:09.705Z,100776.88
2022-08-03T09:22:59.707Z,100781.66
2022-08-03T09:25:44.228Z,100785.45
2022-08-03T09:31:43.145Z,100781.23
2022-08-03T09:34:16.131Z,100783.39
2022-08-03T09:36:52.721Z,100771.14
2022-08-03T09:39:41.802Z,100769.81
2022-08-03T09:42:11.113Z,100765.98
2022-08-03T09:44:46.534Z,100773.71
2022-08-03T09:47:20.481Z,100762.89
2022-08-03T09:50:11.344Z,100763.14
2022-08-03T09:52:52.071Z,100759.80
2022-08-03T09:56:30.912Z,100767.28
2022-08-03T09:57:50.345Z,100758.11
2022-08-03T10:00:21.871Z,100768.31
2022-08-03T10:02:56.032Z,100761.39
2022-08-03T10:05:30.075Z,100764.41
2022-08-03T10:08:01.343Z,100757.38
2022-08-03T10:10:35.247Z,100753.80
2022-08-03T10:13:06.383Z,100769.16
2022-08-03T10:16:22.132Z,100760.27
2022-08-03T10:18:10.564Z,100755.99
2022-08-03T10:21:02.612Z,100761.52
2022-08-03T10:23:36.408Z,100751.41
2022-08-03T10:26:09.529Z,100743.44
2022-08-03T10:28:45.554Z,100749.33
2022-08-03T10:31:18.233Z,100751.83
2022-08-03T10:33:53.075Z,100745.02
2022-08-03T10:36:25.231Z,100746.78
2022-08-03T10:38:57.520Z,100749.61
2022-08-03T10:41:31.376Z,100744.67
2022-08-03T10:44:08.760Z,100742.33
2022-08-03T10:46:44.988Z,100742.58
2022-08-03T10:49:15.863Z,100735.81
2022-08-03T10:51:48.766Z,100743.09
2022-08-03T10:54:58.251Z,100745.14
2022-08-03T10:57:49.623Z,100738.24
2022-08-03T11:00:23.135Z,100740.77
2022-08-03T11:03:09.541Z,100747.05
2022-08-03T11:05:46.109Z,100741.37
2022-08-03T11:08:32.239Z,100735.14
2022-08-03T11:11:23.975Z,100737.91
2022-08-03T11:14:12.928Z,100735.94
2022-08-03T11:16:53.671Z,100729.64
2022-08-03T11:19:27.663Z,100723.00
2022-08-03T11:22:00.411Z,100727.45
2022-08-03T11:24:45.291Z,100727.02
2022-08-03T11:27:24.974Z,100729.63
2022-08-03T11:30:02.238Z,100728.70
2022-08-03T11:32:49.174Z,100719.95
2022-08-03T11:35:41.511Z,100723.56
2022-08-03T11:38:13.263Z,100719.86
2022-08-03T11:40:52.798Z,100719.41
2022-08-03T11:43:35.717Z,100715.75
2022-08-03T11:46:09.860Z,100710.86
2022-08-03T11:48:45.762Z,100712.82
2022-08-03T11:51:27.988Z,100711.52
2022-08-03T11:54:01.185Z,100703.61
2022-08-03T11:56:47.545Z,100713.66
2022-08-03T11:59:22.015Z,100710.80
2022-08-03T12:01:52.280Z,100702.59
2022-08-03T12:04:23.484Z,100698.73
2022-08-03T12:07:04.011Z,100691.45
2022-08-03T12:09:36.583Z,100695.88
2022-08-03T12:12:08.169Z,100700.59
2022-08-03T12:14:50.375Z,100693.52
2022-08-03T12:17:12.342Z,100686.66
2022-08-03T12:19:46.925Z,100692.11
2022-08-03T12:22:18.076Z,100689.58
2022-08-03T12:24:52.197Z,100679.85
2022-08-03T12:27:30.179Z,100677.12
2022-08-03T12:30:02.463Z,100687.64
2022-08-03T12:32:34.193Z,100683.59
2022-08-03T12:35:06.381Z,100687.08
2022-08-03T12:37:37.946Z,100686.11
2022-08-03T12:40:13.234Z,100684.98
2022-08-03T12:42:44.327Z,100681.37
2022-08-03T12:45:29.363Z,100676.84
2022-08-03T12:48:03.190Z,100673.23
2022-08-03T12:50:36.819Z,100668.23
2022-08-03T12:53:10.880Z,100669.96
2022-08-03T12:55:57.892Z,100666.77
2022-08-03T12:58:19.078Z,100661.15
2022-08-03T13:01:00.002Z,100661.56
2022-08-03T13:03:38.191Z,100665.77
2022-08-03T13:06:13.857Z,100659.81
2022-08-03T13:08:46.395Z,100655.64
2022-08-03T13:11:47.654Z,100652.90
2022-08-03T13:14:01.774Z,100651.47
2022-08-03T13:16:34.361Z,100649.87
2022-08-03T13:19:05.915Z,100649.84
2022-08-03T13:22:01.904Z,100646.47
2022-08-03T13:24:12.900Z,100639.91
2022-08-03T13:26:45.488Z,100645.42
2022-08-03T13:29:16.651Z,100658.01
2022-08-03T13:31:50.474Z,100645.17
2022-08-03T13:34:23.603Z,100652.90
2022-08-03T13:37:19.772Z,100641.20
2022-08-03T13:39:32.512Z,100649.09
2022-08-03T13:42:00.187Z,100643.05
2022-08-03T13:44:31.332Z,100633.73
2022-08-03T13:47:02.440Z,100635.12
2022-08-03T13:49:33.721Z,100636.00
2022-08-03T13:52:06.467Z,100635.03
2022-08-03T13:54:37.562Z,100629.52
2022-08-03T13:58:03.026Z,100627.85
2022-08-03T13:59:44.624Z,100624.55
2022-08-03T14:02:15.587Z,100626.05
2022-08-03T14:04:46.583Z,100627.69
2022-08-03T14:07:18.445Z,100628.80
2022-08-03T14:09:49.733Z,100623.34
2022-08-03T14:12:21.206Z,100627.89
2022-08-03T14:14:52.702Z,100630.65
2022-08-03T14:17:23.742Z,100620.58
2022-08-03T14:19:56.814Z,100622.27
2022-08-03T14:22:29.262Z,100607.03
2022-08-03T14:25:00.542Z,100612.02
2022-08-03T14:27:34.161Z,100609.86
2022-08-03T14:30:06.142Z,100616.16
2022-08-03T14:32:37.244Z,100614.60
2022-08-03T14:35:09.522Z,100611.05
2022-08-03T14:37:40.941Z,100609.91
2022-08-03T14:40:12.526Z,100613.09
2022-08-03T14:42:43.818Z,100601.38
2022-08-03T14:45:20.288Z,100597.36
2022-08-03T14:50:28.572Z,100602.83
2022-08-03T14:50:36.927Z,100603.41
2022-08-03T14:52:57.144Z,100601.33
2022-08-03T14:55:28.818Z,100601.19
2022-08-03T14:58:03.518Z,100599.80
2022-08-03T15:00:35.741Z,100599.89
2022-08-03T15:03:07.065Z,100597.42
2022-08-03T15:05:39.936Z,100598.23
2022-08-03T15:08:11.316Z,100597.91
2022-08-03T15:10:45.257Z,100596.37
2022-08-03T15:13:17.451Z,100593.58
2022-08-03T15:15:50.132Z,100599.89
2022-08-03T15:18:21.292Z,100590.16
2022-08-03T15:20:53.957Z,100586.41
2022-08-03T15:23:25.020Z,100585.09
2022-08-03T15:26:28.425Z,100587.59
2022-08-03T15:28:29.907Z,100586.74
2022-08-03T15:31:01.065Z,100581.35
2022-08-03T15:33:35.166Z,100571.90
2022-08-03T15:36:07.171Z,100581.38
2022-08-03T15:38:38.538Z,100569.88
2022-08-03T15:41:13.568Z,100576.49
2022-08-03T15:43:47.566Z,100571.91
2022-08-03T15:46:29.378Z,100575.75
2022-08-03T15:48:49.107Z,100568.77
2022-08-03T15:51:20.193Z,100566.42
2022-08-03T15:53:51.221Z,100565.33
2022-08-03T15:56:22.806Z,100571.55
2022-08-03T15:59:03.550Z,100562.90
2022-08-03T16:01:30.646Z,100565.91
2022-08-03T16:04:01.979Z,100560.19
2022-08-03T16:06:35.570Z,100555.83
2022-08-03T16:09:23.823Z,100559.64
2022-08-03T16:11:45.873Z,100552.80
2022-08-03T16:14:32.495Z,100554.79
2022-08-03T16:16:51.512Z,100552.59
2022-08-03T16:19:22.777Z,100552.02
2022-08-03T16:21:53.952Z,100550.98
2022-08-03T16:24:27.743Z,100545.59
2022-08-03T16:27:00.679Z,100544.44
2022-08-03T16:29:32.276Z,100552.11
2022-08-03T16:32:09.310Z,100544.91
2022-08-03T16:34:40.654Z,100548.53
2022-08-03T16:37:37.142Z,100548.81
2022-08-03T16:39:45.532Z,100546.16
2022-08-03T16:42:16.915Z,100540.74
2022-08-03T16:44:47.883Z,100539.96
2022-08-03T16:47:21.747Z,100537.61
2022-08-03T16:49:54.686Z,100534.30
2022-08-03T16:52:25.550Z,100538.36
2022-08-03T16:54:56.925Z,100537.33
2022-08-03T16:57:59.790Z,100541.80
2022-08-03T17:00:03.269Z,100538.36
2022-08-03T17:02:34.424Z,100544.73
2022-08-03T17:05:07.482Z,100551.46
2022-08-03T17:07:41.217Z,100544.53
2022-08-03T17:10:13.427Z,100547.26
2022-08-03T17:12:44.677Z,100546.02
2022-08-03T17:15:16.751Z,100545.30
2022-08-03T17:17:55.867Z,100554.08
2022-08-03T17:20:29.732Z,100557.87
2022-08-03T17:23:02.911Z,100558.59
2022-08-03T17:25:39.962Z,100561.14
2022-08-03T17:28:49.290Z,100553.61
2022-08-03T17:31:01.685Z,100550.50
2022-08-03T17:33:35.523Z,100553.80
2022-08-03T17:36:08.942Z,100561.41
2022-08-03T17:38:42.602Z,100562.09
2022-08-03T17:41:17.072Z,100561.01
2022-08-03T17:44:16.011Z,100565.81
2022-08-03T17:46:26.528Z,100562.97
2022-08-03T17:48:58.999Z,100559.02
2022-08-03T17:51:46.413Z,100568.48
2022-08-03T17:54:27.040Z,100575.92
2022-08-03T17:57:22.396Z,100570.92
2022-08-03T18:00:27.206Z,100581.41
2022-08-03T18:03:22.403Z,100572.44
2022-08-03T18:06:10.562Z,100581.94
2022-08-03T18:08:32.375Z,100575.28
2022-08-03T18:11:09.918Z,100573.11
2022-08-03T18:14:01.258Z,100584.12
2022-08-03T18:16:37.631Z,100580.88
2022-08-03T18:19:13.788Z,100583.85
2022-08-03T18:22:04.021Z,100580.95
2022-08-03T18:24:18.124Z,100577.67
2022-08-03T18:26:51.113Z,100581.81
2022-08-03T18:29:23.958Z,100579.58
2022-08-03T18:32:04.070Z,100580.45
2022-08-03T18:34:35.474Z,100582.00
2022-08-03T18:37:10.001Z,100581.82
2022-08-03T18:39:49.988Z,100587.98
2022-08-03T18:42:19.663Z,100597.17
2022-08-03T18:44:54.257Z,100596.86
2022-08-03T18:47:51.581Z,100597.33
2022-08-03T18:50:28.177Z,100597.85
2022-08-03T18:53:22.554Z,100597.86
2022-08-03T18:56:02.099Z,100605.89
2022-08-03T18:58:32.249Z,100603.02
2022-08-03T19:02:00.225Z,100599.58
2022-08-03T19:04:00.492Z,100593.91
2022-08-03T19:06:36.260Z,100600.28
2022-08-03T19:09:11.383Z,100607.31
2022-08-03T19:12:14.186Z,100613.61
2022-08-03T19:14:19.885Z,100610.55
2022-08-03T19:16:52.739Z,100612.93
2022-08-03T19:19:25.182Z,100611.37
2022-08-03T19:21:57.105Z,100612.02
2022-08-03T19:24:30.580Z,100612.38
2022-08-03T19:27:02.430Z,100614.80
2022-08-03T19:30:00.483Z,100610.08
2022-08-03T19:32:10.289Z,100610.44
2022-08-03T19:34:42.843Z,100608.62
2022-08-03T19:37:17.627Z,100620.91
2022-08-03T19:39:56.592Z,100616.00
2022-08-03T19:42:32.211Z,100614.69
2022-08-03T19:45:14.576Z,100621.42
2022-08-03T19:47:48.870Z,100618.91
2022-08-03T19:50:22.069Z,100620.56
2022-08-03T19:52:55.796Z,100626.19
2022-08-03T19:55:32.268Z,100621.60
2022-08-03T19:58:06.333Z,100624.81
2022-08-03T20:00:39.750Z,100627.98
2022-08-03T20:03:21.753Z,100630.28
2022-08-03T20:08:21.703Z,100630.22
2022-08-03T20:10:53.301Z,100635.12
2022-08-03T20:13:28.345Z,100627.86
2022-08-03T20:15:58.835Z,100621.41
2022-08-03T20:18:34.734Z,100622.95
2022-08-03T20:21:15.074Z,100626.16
2022-08-03T20:24:01.985Z,100626.73
2022-08-03T20:26:20.662Z,100629.92
2022-08-03T20:28:56.421Z,100626.73
2022-08-03T20:31:32.496Z,100630.23
2022-08-03T20:34:00.861Z,100632.28
2022-08-03T20:36:31.731Z,100633.63
2022-08-03T20:39:07.685Z,100631.81
2022-08-03T20:41:37.288Z,100630.04
2022-08-03T20:44:08.776Z,100627.53
2022-08-03T20:46:53.086Z,100631.15
2022-08-03T20:49:13.700Z,100629.12
2022-08-03T20:51:50.242Z,100623.80
2022-08-03T20:54:28.770Z,100631.88
2022-08-03T20:56:55.678Z,100625.08
2022-08-03T20:59:33.421Z,100638.16
2022-08-03T21:02:02.902Z,100623.18
2022-08-03T21:04:34.197Z,100623.18
2022-08-03T21:07:16.657Z,100638.42
2022-08-03T21:09:51.854Z,100645.80
2022-08-03T21:12:24.000Z,100648.23
2022-08-03T21:13:03.561Z,100622.55
2022-08-03T21:15:02.547Z,100651.66
2022-08-03T21:17:41.157Z,100648.93
2022-08-03T21:20:11.910Z,100651.88
2022-08-03T21:22:45.434Z,100655.38
2022-08-03T21:25:20.455Z,100658.95
2022-08-03T21:27:55.010Z,100660.83
2022-08-03T21:30:27.702Z,100655.28
2022-08-03T21:32:59.716Z,100651.13
2022-08-03T21:35:30.932Z,100657.16
2022-08-03T21:38:20.193Z,100653.27
2022-08-03T21:40:55.074Z,100660.31
2022-08-03T21:43:26.261Z,100660.73
2022-08-03T21:46:03.070Z,100663.73
2022-08-03T21:48:39.707Z,100658.16
2022-08-03T21:51:12.799Z,100654.56
2022-08-03T21:53:59.585Z,100656.27
2022-08-03T21:56:24.665Z,100657.69
2022-08-03T21:58:58.159Z,100657.41
2022-08-03T22:01:34.475Z,100654.83
2022-08-03T22:04:07.403Z,100655.38
2022-08-03T22:06:41.753Z,100656.97
2022-08-03T22:09:12.803Z,100656.46
2022-08-03T22:11:45.590Z,100657.08
2022-08-03T22:14:16.941Z,100656.09
2022-08-03T22:16:49.646Z,100662.62
2022-08-03T22:19:20.712Z,100672.17
2022-08-03T22:21:52.063Z,100661.15
2022-08-03T22:24:26.561Z,100666.86
2022-08-03T22:27:16.073Z,100667.31
2022-08-03T22:29:47.375Z,100671.02
2022-08-03T22:32:18.494Z,100663.51
2022-08-03T22:34:51.298Z,100663.75
2022-08-03T22:37:24.823Z,100657.83
2022-08-03T22:39:56.867Z,100656.55
2022-08-03T22:42:28.367Z,100666.58
2022-08-03T22:44:59.415Z,100666.28
2022-08-03T22:47:31.134Z,100632.95
2022-08-03T22:50:32.074Z,100669.17
2022-08-03T22:52:40.065Z,100661.14
2022-08-03T22:55:13.657Z,100665.11
2022-08-03T22:57:46.594Z,100672.34
2022-08-03T23:00:19.526Z,100675.23
2022-08-03T23:02:52.540Z,100670.50
2022-08-03T23:06:01.114Z,100670.08
2022-08-03T23:07:58.200Z,100667.23
2022-08-03T23:10:29.346Z,100676.70
2022-08-03T23:13:01.056Z,100666.43
2022-08-03T23:15:33.334Z,100674.28
2022-08-03T23:18:06.654Z,100679.42
2022-08-03T23:20:38.729Z,100667.56
2022-08-03T23:23:11.158Z,100678.11
2022-08-03T23:25:44.378Z,100674.33
2022-08-03T23:28:19.157Z,100673.73
2022-08-03T23:30:54.682Z,100673.73
2022-08-03T23:33:27.980Z,100678.11
2022-08-03T23:36:28.891Z,100677.18
2022-08-03T23:38:36.882Z,100679.56
2022-08-03T23:41:09.441Z,100680.96
2022-08-03T23:43:51.888Z,100691.36
2022-08-03T23:46:18.189Z,100688.05
2022-08-03T23:48:49.697Z,100686.14
2022-08-03T23:51:29.730Z,100685.92
2022-08-03T23:54:15.225Z,100686.85
2022-08-03T23:56:57.530Z,100687.52
2022-08-03T23:59:32.370Z,100686.63
